Fruitvale, Texas
Current Conditions -  °F | °C
As of 9:15 AM on Saturday 25 Oct 2014 (Local Time) from KJDD Reporting Station
Clear Clear  
Wind Chill: 66°   Ceiling: Unl
Heat Index: 66°   Visibility: 10mi
Dew Point: 59°   Wind: 7mph
Humidity: 78%   Direction: 200°SSW
Pressure: 30.18"   Gusts: NA
Location:  32.68°N, 95.8°W
Report Text: KJDD 251415Z AUTO 20006KT 10SM CLR 19/15 A3018 RMK AO2
Loading
Personal Weather Stations






























Interactive Weather Map
Tropical Storm Tracking
New forecast layout! Learn more

10-Day Weather Forecast

Advertisements
Track Severe Weather on mobile